Time;durP1;ratioP1;P1;durP2;ratioP2;P2;SDS_P1;SDS_P2;PMS_P1;PMS_P2;Temp;Humidity;BMP_temperature;BMP_pressure;BME280_temperature;BME280_humidity;BME280_pressure;Samples;Min_cycle;Max_cycle;Signal;HPM_P1;HPM_P2
2023/06/05 00:01:12;;;;;;;1.60;0.80;;;23.80;72.20;;;;;;5054251;28;20028;-85
2023/06/05 00:03:39;;;;;;;1.50;0.80;;;23.10;69.10;;;;;;5055014;28;20033;-85
2023/06/05 00:06:08;;;;;;;1.05;0.60;;;;;;;;;;5054791;28;20028;-85
2023/06/05 00:08:35;;;;;;;0.90;0.85;;;;;;;;;;5054563;28;20029;-84
2023/06/05 00:11:01;;;;;;;0.85;0.65;;;23.60;69.40;;;;;;5053826;28;20058;-85
2023/06/05 00:13:27;;;;;;;1.00;0.50;;;;;;;;;;5053536;28;20055;-84
2023/06/05 00:15:54;;;;;;;1.15;0.80;;;;;;;;;;5054098;28;20071;-84
2023/06/05 00:18:21;;;;;;;1.08;0.60;;;;;;;;;;5054124;28;20025;-84
2023/06/05 00:20:47;;;;;;;1.42;0.85;;;;;;;;;;5054241;28;20033;-84
2023/06/05 00:23:14;;;;;;;1.33;0.65;;;;;;;;;;5054012;28;20032;-83
2023/06/05 00:25:41;;;;;;;0.65;0.55;;;;;;;;;;5053953;28;20060;-84
2023/06/05 00:28:07;;;;;;;1.02;0.68;;;;;;;;;;5053856;28;20048;-84
2023/06/05 00:30:33;;;;;;;1.65;0.60;;;23.60;69.50;;;;;;5053663;28;20040;-84
2023/06/05 00:33:00;;;;;;;1.25;0.60;;;;;;;;;;5053065;28;20426;-84
2023/06/05 00:35:26;;;;;;;0.70;0.63;;;;;;;;;;5053584;28;20033;-85
2023/06/05 00:37:52;;;;;;;1.67;0.70;;;;;;;;;;5053686;28;20064;-84
2023/06/05 00:40:18;;;;;;;1.15;0.65;;;23.70;72.20;;;;;;5053704;28;20032;-85
2023/06/05 00:42:45;;;;;;;0.95;0.65;;;23.70;73.00;;;;;;5053763;28;20583;-84
2023/06/05 00:45:11;;;;;;;1.10;0.68;;;;;;;;;;5053213;28;20021;-85
2023/06/05 00:47:38;;;;;;;0.60;0.50;;;;;;;;;;5053832;28;20092;-84
2023/06/05 00:50:04;;;;;;;1.23;0.88;;;;;;;;;;5053030;28;20056;-84
2023/06/05 00:52:32;;;;;;;0.95;0.60;;;23.30;55.30;;;;;;5053466;28;20509;-84
2023/06/05 00:54:59;;;;;;;0.80;0.52;;;;;;;;;;5052832;28;20029;-84
2023/06/05 00:57:26;;;;;;;1.20;0.40;;;23.30;55.10;;;;;;5053028;28;20070;-84
2023/06/05 00:59:53;;;;;;;1.33;0.70;;;;;;;;;;5052788;28;20039;-84
2023/06/05 01:02:19;;;;;;;2.45;0.70;;;;;;;;;;5052979;28;20097;-84
2023/06/05 01:04:46;;;;;;;0.70;0.70;;;;;;;;;;5053350;28;20376;-85
2023/06/05 01:07:14;;;;;;;0.60;0.57;;;23.20;53.20;;;;;;5052811;28;20534;-84
2023/06/05 01:09:40;;;;;;;0.60;0.55;;;23.20;52.50;;;;;;5052961;28;20025;-84
2023/06/05 01:12:29;;;;;;;0.73;0.50;;;23.20;49.90;;;;;;5051465;28;20059;-84
2023/06/05 01:14:58;;;;;;;1.10;0.80;;;23.20;55.00;;;;;;5052447;28;20080;-84
2023/06/05 01:17:28;;;;;;;1.95;0.50;;;23.20;55.30;;;;;;5052678;28;20111;-84
2023/06/05 01:19:54;;;;;;;1.02;0.63;;;23.20;55.70;;;;;;5052951;28;20033;-84
2023/06/05 01:22:21;;;;;;;0.90;0.63;;;;;;;;;;5052583;28;20029;-84
2023/06/05 01:24:47;;;;;;;0.85;0.50;;;;;;;;;;5052554;28;20049;-84
2023/06/05 01:27:18;;;;;;;1.65;0.85;;;23.10;55.50;;;;;;5052316;28;20029;-84
2023/06/05 01:30:09;;;;;;;1.05;0.80;;;23.00;50.20;;;;;;5052560;28;20528;-84
2023/06/05 01:32:44;;;;;;;0.80;0.80;;;23.00;55.60;;;;;;5052402;28;20457;-84
2023/06/05 01:35:16;;;;;;;1.10;0.60;;;;;;;;;;5052337;28;20131;-84
2023/06/05 01:37:46;;;;;;;0.55;0.50;;;23.00;54.80;;;;;;5052425;28;20033;-84
2023/06/05 01:40:17;;;;;;;1.02;0.60;;;23.00;55.70;;;;;;5052470;28;20028;-84
2023/06/05 01:42:44;;;;;;;1.85;0.68;;;;;;;;;;5052395;28;20048;-84
2023/06/05 01:45:11;;;;;;;0.60;0.60;;;23.00;53.00;;;;;;5051416;28;20029;-84
2023/06/05 01:47:38;;;;;;;1.05;0.50;;;23.00;54.90;;;;;;5052416;28;20066;-84
2023/06/05 01:50:05;;;;;;;0.60;0.57;;;22.90;56.00;;;;;;5052036;28;20029;-84
2023/06/05 01:52:31;;;;;;;0.70;0.60;;;;;;;;;;5052008;28;20052;-84
2023/06/05 01:55:01;;;;;;;1.35;0.50;;;;;;;;;;5051979;28;20452;-84
2023/06/05 01:57:28;;;;;;;0.93;0.68;;;;;;;;;;5052191;28;20025;-84
2023/06/05 01:59:54;;;;;;;0.68;0.50;;;;;;;;;;5052279;28;20033;-84
2023/06/05 02:02:21;;;;;;;0.63;0.63;;;;;;;;;;5050630;28;20074;-84
2023/06/05 02:04:47;;;;;;;0.77;0.40;;;;;;;;;;5052130;28;20116;-84
2023/06/05 02:07:14;;;;;;;0.63;0.60;;;;;;;;;;5050768;28;20483;-84
2023/06/05 02:09:41;;;;;;;1.60;0.82;;;22.80;53.90;;;;;;5051912;28;20503;-84
2023/06/05 02:12:07;;;;;;;0.93;0.70;;;;;;;;;;5051992;28;20114;-84
2023/06/05 02:14:37;;;;;;;0.50;0.50;;;;;;;;;;5051778;28;20671;-84
2023/06/05 02:17:06;;;;;;;0.98;0.50;;;;;;;;;;5052083;28;20679;-85
2023/06/05 02:19:35;;;;;;;0.70;0.70;;;22.80;56.20;;;;;;5051982;28;20083;-84
2023/06/05 02:22:01;;;;;;;0.75;0.75;;;;;;;;;;5052146;28;20032;-84
2023/06/05 02:24:27;;;;;;;0.60;0.60;;;22.70;53.50;;;;;;5051942;28;20021;-84
2023/06/05 02:26:53;;;;;;;0.70;0.50;;;;;;;;;;5051928;28;20148;-84
2023/06/05 02:29:19;;;;;;;1.08;0.82;;;;;;;;;;5052018;28;20617;-84
2023/06/05 02:31:45;;;;;;;0.77;0.70;;;;;;;;;;5051850;28;20025;-84
2023/06/05 02:34:11;;;;;;;0.85;0.40;;;;;;;;;;5051755;28;20553;-80
2023/06/05 02:36:38;;;;;;;1.33;0.70;;;;;;;;;;5051518;28;20037;-81
2023/06/05 02:39:07;;;;;;;0.70;0.57;;;;;;;;;;5051704;28;20433;-81
2023/06/05 02:41:33;;;;;;;0.40;0.40;;;;;;;;;;5051541;28;20025;-80
2023/06/05 02:43:59;;;;;;;0.80;0.47;;;;;;;;;;5051609;28;20438;-80
2023/06/05 02:46:25;;;;;;;0.75;0.75;;;;;;;;;;5051486;28;20103;-80
2023/06/05 02:48:52;;;;;;;1.40;0.65;;;;;;;;;;5051901;28;20102;-79
2023/06/05 02:51:18;;;;;;;0.88;0.50;;;;;;;;;;5051830;28;20037;-80
2023/06/05 02:53:45;;;;;;;1.27;0.68;;;;;;;;;;5050563;28;20056;-80
2023/06/05 02:56:13;;;;;;;0.70;0.70;;;;;;;;;;5051745;28;20033;-80
2023/06/05 02:58:39;;;;;;;0.70;0.60;;;;;;;;;;5055070;28;20021;-80
2023/06/05 03:01:08;;;;;;;0.70;0.60;;;;;;;;;;5055398;28;20079;-80
2023/06/05 03:03:34;;;;;;;0.80;0.60;;;;;;;;;;5055246;28;20029;-80
2023/06/05 03:06:04;;;;;;;0.77;0.50;;;22.50;56.60;;;;;;5053722;28;20486;-80
2023/06/05 03:08:38;;;;;;;0.50;0.50;;;22.40;56.70;;;;;;5055575;28;20053;-80
2023/06/05 03:11:05;;;;;;;0.50;0.50;;;;;;;;;;5055243;28;20060;-80
2023/06/05 03:13:32;;;;;;;0.70;0.70;;;22.40;53.70;;;;;;5055028;28;20048;-80
2023/06/05 03:16:00;;;;;;;2.03;0.80;;;;;;;;;;5054669;28;20434;-80
2023/06/05 03:18:27;;;;;;;1.40;0.73;;;22.40;53.20;;;;;;5054897;28;20017;-80
2023/06/05 03:20:56;;;;;;;1.15;0.80;;;;;;;;;;5056396;28;20620;-80
2023/06/05 03:23:29;;;;;;;0.80;0.70;;;22.40;56.00;;;;;;5055953;28;20047;-81
2023/06/05 03:25:55;;;;;;;1.50;0.73;;;;;;;;;;5056533;28;20036;-81
2023/06/05 03:28:22;;;;;;;1.00;0.60;;;22.30;55.40;;;;;;5056304;28;20100;-81
2023/06/05 03:30:48;;;;;;;0.60;0.50;;;;;;;;;;5054476;28;20096;-80
2023/06/05 03:33:17;;;;;;;1.05;0.70;;;22.30;54.00;;;;;;5054539;28;20033;-80
2023/06/05 03:35:46;;;;;;;1.38;0.60;;;;;;;;;;5054733;28;20036;-80
2023/06/05 03:38:12;;;;;;;0.75;0.50;;;;;;;;;;5054544;28;20084;-80
2023/06/05 03:40:41;;;;;;;1.05;0.88;;;;;;;;;;5054548;28;20035;-80
2023/06/05 03:43:07;;;;;;;0.60;0.52;;;22.30;54.50;;;;;;5054903;28;20068;-80
2023/06/05 03:45:35;;;;;;;0.85;0.80;;;22.20;56.50;;;;;;5054593;28;20063;-81
2023/06/05 03:48:02;;;;;;;0.95;0.63;;;;;;;;;;5054309;28;20021;-80
2023/06/05 03:50:31;;;;;;;0.77;0.60;;;;;;;;;;5054482;28;20029;-80
2023/06/05 03:53:02;;;;;;;1.55;0.80;;;;;;;;;;5054364;28;20029;-80
2023/06/05 03:55:41;;;;;;;0.63;0.60;;;22.20;56.00;;;;;;5054153;28;20108;-80
2023/06/05 03:58:13;;;;;;;1.77;0.70;;;22.20;51.10;;;;;;5054246;28;20021;-79
2023/06/05 04:10:00;;;;;;;2.60;0.60;;;;;;;;;;5074194;28;20031;-78
2023/06/05 04:12:26;;;;;;;0.60;0.60;;;;;;;;;;5074312;28;20112;-80
2023/06/05 04:14:52;;;;;;;0.93;0.70;;;;;;;;;;5074512;28;20025;-81
2023/06/05 04:17:18;;;;;;;0.90;0.80;;;;;;;;;;5073926;28;20371;-80
2023/06/05 04:19:44;;;;;;;1.17;0.73;;;;;;;;;;5073822;28;20033;-80
2023/06/05 04:22:10;;;;;;;1.00;0.50;;;;;;;;;;5073860;28;20024;-80
2023/06/05 04:24:38;;;;;;;0.70;0.70;;;;;;;;;;5073646;28;20028;-80
2023/06/05 04:27:04;;;;;;;0.95;0.70;;;;;;;;;;5073524;28;20050;-80
2023/06/05 04:29:32;;;;;;;1.02;0.80;;;;;;;;;;5073433;28;20032;-80
2023/06/05 04:31:58;;;;;;;0.93;0.50;;;;;;;;;;5073441;28;20143;-80
2023/06/05 04:34:24;;;;;;;1.50;0.80;;;;;;;;;;5073538;28;20025;-80
2023/06/05 04:36:51;;;;;;;0.70;0.70;;;;;;;;;;5073391;28;20036;-80
2023/06/05 04:39:18;;;;;;;0.82;0.60;;;;;;;;;;5073149;28;20098;-80
2023/06/05 04:41:48;;;;;;;0.80;0.60;;;;;;;;;;5073445;28;20032;-80
2023/06/05 04:44:16;;;;;;;0.90;0.80;;;;;;;;;;5073118;28;20028;-80
2023/06/05 04:46:43;;;;;;;1.30;0.80;;;;;;;;;;5073178;28;20068;-80
2023/06/05 04:49:13;;;;;;;1.20;0.80;;;21.90;57.10;;;;;;5073276;28;20028;-80
2023/06/05 04:51:40;;;;;;;0.70;0.70;;;;;;;;;;5073376;28;20107;-80
2023/06/05 04:54:06;;;;;;;1.00;0.57;;;;;;;;;;5073299;28;20020;-80
2023/06/05 04:56:34;;;;;;;1.88;0.80;;;21.90;55.20;;;;;;5073069;28;20050;-80
2023/06/05 04:59:01;;;;;;;0.93;0.90;;;;;;;;;;5073098;28;20023;-80
2023/06/05 05:01:27;;;;;;;1.65;0.80;;;;;;;;;;5073132;28;20420;-80
2023/06/05 05:03:54;;;;;;;0.55;0.55;;;;;;;;;;5072626;28;20049;-80
2023/06/05 05:06:20;;;;;;;1.35;0.75;;;;;;;;;;5072723;28;20402;-80
2023/06/05 05:08:50;;;;;;;0.77;0.77;;;;;;;;;;5072614;28;20020;-80
2023/06/05 05:11:16;;;;;;;1.02;0.68;;;;;;;;;;5073076;28;20033;-81
2023/06/05 05:13:42;;;;;;;1.17;0.90;;;21.80;55.00;;;;;;5072543;28;20467;-80
2023/06/05 05:16:09;;;;;;;1.90;1.08;;;;;;;;;;5072516;28;20038;-80
2023/06/05 05:18:36;;;;;;;0.70;0.70;;;;;;;;;;5072048;28;20032;-79
2023/06/05 05:21:04;;;;;;;1.85;0.70;;;;;;;;;;5072403;28;20025;-80
2023/06/05 05:23:30;;;;;;;0.90;0.90;;;;;;;;;;5072931;28;20032;-83
2023/06/05 05:25:57;;;;;;;1.05;0.80;;;;;;;;;;5072678;28;20024;-80
2023/06/05 05:28:23;;;;;;;1.35;1.05;;;;;;;;;;5072670;28;20017;-78
2023/06/05 05:30:50;;;;;;;1.10;1.00;;;;;;;;;;5075415;28;20063;-79
2023/06/05 05:33:17;;;;;;;0.80;0.80;;;;;;;;;;5076655;28;20468;-76
2023/06/05 05:35:44;;;;;;;1.05;0.60;;;21.70;58.00;;;;;;5072679;28;20064;-79
2023/06/05 05:38:11;;;;;;;0.93;0.90;;;;;;;;;;5072604;28;20347;-79
2023/06/05 05:40:37;;;;;;;1.90;1.00;;;;;;;;;;5072322;28;20029;-77
2023/06/05 05:43:04;;;;;;;2.58;0.90;;;;;;;;;;5072144;28;20056;-79
2023/06/05 05:45:30;;;;;;;2.70;0.70;;;;;;;;;;5072503;28;20440;-80
2023/06/05 05:47:57;;;;;;;2.13;0.70;;;;;;;;;;5072343;28;20028;-79
2023/06/05 05:50:23;;;;;;;1.25;0.80;;;;;;;;;;5072420;28;20414;-80
2023/06/05 05:52:51;;;;;;;0.98;0.85;;;;;;;;;;5072580;28;20032;-79
2023/06/05 05:55:18;;;;;;;0.95;0.75;;;;;;;;;;5072258;28;20114;-79
2023/06/05 05:57:44;;;;;;;0.98;0.88;;;;;;;;;;5072338;28;20025;-79
2023/06/05 06:00:12;;;;;;;0.95;0.75;;;;;;;;;;5071938;28;20493;-86
2023/06/05 06:02:39;;;;;;;2.85;1.08;;;21.70;54.40;;;;;;5071769;28;20136;-79
2023/06/05 06:05:06;;;;;;;1.40;0.88;;;21.70;56.80;;;;;;5071994;28;20027;-78
2023/06/05 06:07:32;;;;;;;1.17;0.82;;;;;;;;;;5072248;28;20078;-80
2023/06/05 06:09:59;;;;;;;1.17;0.80;;;;;;;;;;5072057;28;20386;-81
2023/06/05 06:12:25;;;;;;;1.73;1.02;;;;;;;;;;5071896;28;20021;-81
2023/06/05 06:14:51;;;;;;;2.10;1.10;;;;;;;;;;5071836;28;20040;-80
2023/06/05 06:17:17;;;;;;;1.48;0.80;;;;;;;;;;5054121;28;20033;-80
2023/06/05 06:19:44;;;;;;;1.08;0.93;;;;;;;;;;5072139;28;20540;-77
2023/06/05 06:22:13;;;;;;;1.70;1.17;;;;;;;;;;5054245;28;20032;-80
2023/06/05 06:24:41;;;;;;;1.10;1.00;;;21.60;58.40;;;;;;5071955;28;20432;-80
2023/06/05 06:27:10;;;;;;;3.15;1.02;;;21.60;58.40;;;;;;5071977;28;20016;-80
2023/06/05 06:29:46;;;;;;;2.25;0.82;;;21.50;47.70;;;;;;5072004;28;20432;-80
2023/06/05 06:32:12;;;;;;;1.08;0.80;;;;;;;;;;5056073;28;20103;-80
2023/06/05 06:34:38;;;;;;;1.85;0.80;;;;;;;;;;5075606;28;20107;-80
2023/06/05 06:37:04;;;;;;;2.10;1.20;;;;;;;;;;5075519;28;20020;-78
2023/06/05 06:39:31;;;;;;;2.63;0.93;;;;;;;;;;5075565;28;20040;-81
2023/06/05 06:41:57;;;;;;;2.28;0.80;;;;;;;;;;5075483;28;20494;-81
2023/06/05 06:44:23;;;;;;;1.45;1.02;;;;;;;;;;5075319;28;20024;-80
2023/06/05 06:46:49;;;;;;;1.80;1.10;;;;;;;;;;5075508;28;20051;-80
2023/06/05 06:49:15;;;;;;;1.13;0.80;;;;;;;;;;5075330;28;20020;-81
2023/06/05 06:51:41;;;;;;;1.55;1.00;;;;;;;;;;5057343;28;20054;-80
2023/06/05 06:54:07;;;;;;;1.15;0.95;;;;;;;;;;5075378;28;20100;-82
2023/06/05 06:56:33;;;;;;;1.95;0.95;;;;;;;;;;5075385;28;20037;-82
2023/06/05 06:58:59;;;;;;;1.33;1.02;;;;;;;;;;5075523;28;20106;-82
2023/06/05 07:01:25;;;;;;;1.20;0.80;;;;;;;;;;5075348;28;20032;-83
2023/06/05 07:03:52;;;;;;;1.58;1.30;;;;;;;;;;5075101;28;20441;-81
2023/06/05 07:06:21;;;;;;;1.85;1.05;;;;;;;;;;5075273;28;20025;-81
2023/06/05 07:08:47;;;;;;;2.22;0.90;;;;;;;;;;5074989;28;20111;-81
2023/06/05 07:11:13;;;;;;;1.38;0.95;;;;;;;;;;5075079;28;20060;-78
2023/06/05 07:13:39;;;;;;;1.85;1.02;;;;;;;;;;5075098;28;20028;-77
2023/06/05 07:16:06;;;;;;;1.23;1.05;;;;;;;;;;5075452;28;20115;-78
2023/06/05 07:18:32;;;;;;;1.83;0.82;;;;;;;;;;5075012;28;20032;-78
2023/06/05 07:20:59;;;;;;;3.22;1.35;;;;;;;;;;5074583;28;20104;-78
2023/06/05 07:23:25;;;;;;;2.03;1.13;;;;;;;;;;5075049;28;20074;-78
2023/06/05 07:25:52;;;;;;;1.63;1.00;;;;;;;;;;5074643;28;20025;-78
2023/06/05 07:28:18;;;;;;;1.52;1.10;;;;;;;;;;5074844;28;20025;-77
2023/06/05 07:30:45;;;;;;;1.40;1.00;;;;;;;;;;5075053;28;20032;-76
2023/06/05 07:33:11;;;;;;;1.38;0.90;;;;;;;;;;5074846;28;20040;-77
2023/06/05 07:35:37;;;;;;;1.27;1.02;;;;;;;;;;5074199;28;20043;-78
2023/06/05 07:38:04;;;;;;;1.63;1.10;;;;;;;;;;5074369;28;20024;-78
2023/06/05 07:40:31;;;;;;;1.02;1.00;;;;;;;;;;5074696;28;20047;-77
2023/06/05 07:42:57;;;;;;;1.08;0.98;;;;;;;;;;5074463;28;20028;-78
2023/06/05 07:45:24;;;;;;;2.53;1.42;;;;;;;;;;5074302;28;20432;-77
2023/06/05 07:47:50;;;;;;;1.08;0.90;;;;;;;;;;5074222;28;20418;-77
2023/06/05 07:50:16;;;;;;;1.00;0.93;;;;;;;;;;5074177;28;20040;-78
2023/06/05 07:52:42;;;;;;;2.67;0.90;;;;;;;;;;5074377;28;20031;-78
2023/06/05 07:55:08;;;;;;;0.93;0.80;;;;;;;;;;5074577;28;20033;-77
2023/06/05 07:57:34;;;;;;;1.58;1.20;;;;;;;;;;5074249;28;20548;-78
2023/06/05 08:00:00;;;;;;;0.80;0.80;;;;;;;;;;5074386;28;20087;-77
2023/06/05 08:02:26;;;;;;;1.05;0.90;;;;;;;;;;5073942;28;20124;-77
2023/06/05 08:04:52;;;;;;;1.15;1.00;;;;;;;;;;5074214;28;20067;-78
2023/06/05 08:07:18;;;;;;;2.22;0.80;;;;;;;;;;5073994;28;20399;-77
2023/06/05 08:09:45;;;;;;;1.83;1.00;;;;;;;;;;5074015;28;20051;-76
2023/06/05 08:12:11;;;;;;;1.90;1.38;;;;;;;;;;5056574;28;20442;-76
2023/06/05 08:14:38;;;;;;;1.00;0.90;;;;;;;;;;5074053;28;20041;-76
2023/06/05 08:17:04;;;;;;;0.85;0.85;;;;;;;;;;5074005;28;20462;-76
2023/06/05 08:19:30;;;;;;;1.25;0.80;;;;;;;;;;5073756;28;20024;-77
2023/06/05 08:21:59;;;;;;;1.23;1.00;;;;;;;;;;5073431;28;20391;-78
2023/06/05 08:24:26;;;;;;;0.90;0.90;;;;;;;;;;5073487;28;20029;-78
2023/06/05 08:26:52;;;;;;;1.20;1.10;;;;;;;;;;5073350;28;20105;-76
2023/06/05 08:29:18;;;;;;;0.90;0.80;;;;;;;;;;5073375;28;20048;-76
2023/06/05 08:31:44;;;;;;;1.05;0.90;;;;;;;;;;5073160;28;20075;-76
2023/06/05 08:34:10;;;;;;;0.77;0.70;;;;;;;;;;5074586;28;20112;-77
2023/06/05 08:36:36;;;;;;;1.40;0.90;;;;;;;;;;5075395;28;20130;-78
2023/06/05 08:39:03;;;;;;;2.38;1.17;;;;;;;;;;5072920;28;20048;-77
2023/06/05 08:41:32;;;;;;;1.67;1.10;;;22.00;54.80;;;;;;5073097;28;20055;-76
2023/06/05 08:43:58;;;;;;;1.55;1.10;;;;;;;;;;5073064;28;20028;-77
2023/06/05 08:46:28;;;;;;;2.58;1.33;;;22.10;60.30;;;;;;5073110;28;20116;-76
2023/06/05 08:48:54;;;;;;;2.77;1.20;;;;;;;;;;5055022;28;20021;-77
2023/06/05 08:51:21;;;;;;;1.20;1.10;;;;;;;;;;5073292;28;20657;-78
2023/06/05 08:54:12;;;;;;;1.05;1.00;;;22.20;47.30;;;;;;5072751;28;20029;-79
2023/06/05 08:56:38;;;;;;;1.45;1.00;;;;;;;;;;5073083;28;20394;-78
2023/06/05 08:59:06;;;;;;;1.35;1.20;;;22.20;51.20;;;;;;5073131;28;20497;-78
2023/06/05 09:01:32;;;;;;;1.35;0.98;;;22.20;83.20;;;;;;5073025;28;20074;-77
2023/06/05 09:03:59;;;;;;;2.25;1.00;;;;;;;;;;5072806;28;20071;-78
2023/06/05 09:06:25;;;;;;;1.80;1.40;;;;;;;;;;5072954;28;20108;-76
2023/06/05 09:08:52;;;;;;;1.80;1.10;;;;;;;;;;5072480;28;20029;-78
2023/06/05 09:11:26;;;;;;;2.25;1.10;;;21.90;78.30;;;;;;5072625;28;20502;-78
2023/06/05 09:13:54;;;;;;;2.28;1.23;;;22.40;46.40;;;;;;5073105;28;20051;-78
2023/06/05 09:16:22;;;;;;;1.52;1.20;;;22.50;46.30;;;;;;5072892;28;20108;-78
2023/06/05 09:18:53;;;;;;;1.33;1.20;;;22.50;46.70;;;;;;5072577;28;20070;-78
2023/06/05 09:21:20;;;;;;;2.22;1.17;;;;;;;;;;5073033;28;20094;-78
2023/06/05 09:23:46;;;;;;;1.30;1.05;;;22.80;75.00;;;;;;5073026;28;20095;-78
2023/06/05 09:26:13;;;;;;;1.48;1.00;;;22.50;74.40;;;;;;5072912;28;20025;-78
2023/06/05 09:29:02;;;;;;;1.85;1.20;;;22.40;73.60;;;;;;5073005;28;20188;-79
2023/06/05 09:31:42;;;;;;;1.20;1.10;;;23.10;73.70;;;;;;5073140;28;20017;-78
2023/06/05 09:34:07;;;;;;;1.80;1.20;;;23.40;73.80;;;;;;5072707;28;20024;-78
2023/06/05 09:36:34;;;;;;;1.80;0.98;;;23.30;73.40;;;;;;5073110;28;20032;-78
2023/06/05 09:39:15;;;;;;;1.13;1.05;;;23.40;72.90;;;;;;5072968;28;20020;-77
2023/06/05 09:41:51;;;;;;;2.55;1.20;;;23.50;53.00;;;;;;5072613;28;20025;-77
2023/06/05 09:44:17;;;;;;;1.98;1.13;;;23.00;72.30;;;;;;5073285;28;20032;-80
2023/06/05 09:46:58;;;;;;;2.28;1.52;;;23.60;72.40;;;;;;5073065;28;20016;-78
2023/06/05 09:49:32;;;;;;;1.25;1.15;;;23.40;45.40;;;;;;5072901;28;20502;-78
2023/06/05 09:51:59;;;;;;;1.73;1.27;;;23.20;72.00;;;;;;5072403;28;20429;-78
2023/06/05 09:54:27;;;;;;;1.92;0.98;;;23.60;72.20;;;;;;5072278;28;20020;-79
2023/06/05 09:56:58;;;;;;;1.73;1.05;;;23.50;64.00;;;;;;5072316;28;20060;-80
2023/06/05 09:59:28;;;;;;;1.42;1.10;;;23.90;63.70;;;;;;5054283;28;20029;-77
2023/06/05 10:01:54;;;;;;;2.03;1.27;;;23.40;49.20;;;;;;5071892;28;20494;-77
2023/06/05 10:04:28;;;;;;;2.10;1.67;;;23.70;71.60;;;;;;5072162;28;20306;-78
2023/06/05 10:06:59;;;;;;;1.30;1.20;;;24.00;72.00;;;;;;5074201;28;20075;-78
2023/06/05 10:09:26;;;;;;;2.67;1.38;;;23.80;71.70;;;;;;5076834;28;20027;-78
2023/06/05 10:11:52;;;;;;;5.63;1.35;;;24.10;71.40;;;;;;5076454;28;20028;-79
2023/06/05 10:14:21;;;;;;;1.85;1.10;;;24.10;71.70;;;;;;5076594;28;20049;-77
2023/06/05 10:16:53;;;;;;;1.43;1.33;;;23.70;71.50;;;;;;5076538;28;20043;-78
2023/06/05 10:19:20;;;;;;;2.67;1.58;;;24.00;71.60;;;;;;5076296;28;20020;-79
2023/06/05 10:21:49;;;;;;;2.28;1.48;;;24.40;71.60;;;;;;5076088;28;20040;-78
2023/06/05 10:24:37;;;;;;;1.98;1.20;;;24.30;71.80;;;;;;5075922;28;20070;-77
2023/06/05 10:27:12;;;;;;;1.42;1.27;;;23.90;51.90;;;;;;5075523;28;20066;-78
2023/06/05 10:29:53;;;;;;;1.48;1.35;;;24.30;71.70;;;;;;5075939;28;20466;-77
2023/06/05 10:32:32;;;;;;;1.92;1.63;;;24.30;49.60;;;;;;5057833;28;20028;-80
2023/06/05 10:35:16;;;;;;;1.30;1.17;;;24.60;71.80;;;;;;5075804;28;20060;-78
2023/06/05 10:38:00;;;;;;;1.30;1.20;;;24.50;71.70;;;;;;5075732;28;20052;-78
2023/06/05 10:40:26;;;;;;;1.90;1.70;;;24.60;71.40;;;;;;5075785;28;20024;-78
2023/06/05 10:42:52;;;;;;;0.80;0.80;;;24.10;71.60;;;;;;5075586;28;20028;-78
2023/06/05 10:45:31;;;;;;;2.22;1.65;;;24.90;71.60;;;;;;5075670;28;20066;-78
2023/06/05 10:47:57;;;;;;;2.00;1.40;;;24.90;72.10;;;;;;5075474;28;20038;-79
2023/06/05 10:50:27;;;;;;;1.90;1.80;;;24.80;44.90;;;;;;5075665;28;20021;-78
2023/06/05 10:52:55;;;;;;;2.08;1.75;;;24.80;45.00;;;;;;5075768;28;20056;-78
2023/06/05 10:55:23;;;;;;;1.55;1.02;;;24.40;71.80;;;;;;5075676;28;20086;-78
2023/06/05 10:58:01;;;;;;;1.30;1.13;;;25.00;45.10;;;;;;5075466;28;20009;-78
2023/06/05 11:00:38;;;;;;;3.17;1.80;;;25.00;44.90;;;;;;5075608;28;20543;-79
2023/06/05 11:03:06;;;;;;;1.75;1.10;;;25.20;72.60;;;;;;5075496;28;20055;-79
2023/06/05 11:05:32;;;;;;;2.30;1.60;;;24.90;72.20;;;;;;5075724;28;20093;-78
2023/06/05 11:08:18;;;;;;;1.67;1.05;;;25.20;44.80;;;;;;5075545;28;20067;-80
2023/06/05 11:11:09;;;;;;;1.77;1.30;;;25.50;72.50;;;;;;5075337;28;20078;-82
2023/06/05 11:13:54;;;;;;;2.70;1.90;;;25.30;44.40;;;;;;5075160;28;20025;-79
2023/06/05 11:16:29;;;;;;;1.67;1.42;;;25.30;71.90;;;;;;5074962;28;20051;-78
2023/06/05 11:19:14;;;;;;;1.67;1.17;;;25.60;72.50;;;;;;5074880;28;20020;-77
2023/06/05 11:22:03;;;;;;;1.42;1.10;;;25.40;72.50;;;;;;5074998;28;20245;-81
2023/06/05 11:24:29;;;;;;;1.10;1.00;;;25.40;57.30;;;;;;5074929;28;20029;-78
2023/06/05 11:27:41;;;;;;;2.13;1.00;;;25.70;44.50;;;;;;5074769;28;20028;-78
2023/06/05 11:30:33;;;;;;;3.90;1.30;;;25.70;72.20;;;;;;5074737;28;20036;-79
2023/06/05 11:33:20;;;;;;;1.08;0.90;;;26.10;72.70;;;;;;5074785;28;20090;-79
2023/06/05 11:36:07;;;;;;;1.60;1.17;;;25.90;44.40;;;;;;5074217;28;20540;-79
2023/06/05 11:38:58;;;;;;;1.20;1.10;;;26.10;82.90;;;;;;5074278;28;20103;-79
2023/06/05 11:41:25;;;;;;;2.58;1.58;;;;;;;;;;5074653;28;20032;-81
2023/06/05 11:43:51;;;;;;;1.33;1.20;;;;;;;;;;5057013;28;20036;-81
2023/06/05 11:46:17;;;;;;;1.50;0.90;;;;;;;;;;5074471;28;20470;-82
2023/06/05 11:48:45;;;;;;;1.20;1.10;;;26.20;56.30;;;;;;5074233;28;20028;-82
2023/06/05 11:51:11;;;;;;;2.75;0.70;;;;;;;;;;5074381;28;20051;-82
2023/06/05 11:53:47;;;;;;;1.00;0.70;;;26.30;56.40;;;;;;5075017;28;20394;-81
2023/06/05 11:56:16;;;;;;;2.00;1.23;;;26.30;56.10;;;;;;5074689;28;20489;-81
2023/06/05 11:58:43;;;;;;;0.80;0.80;;;;;;;;;;5074650;28;20051;-81
2023/06/05 12:01:25;;;;;;;1.25;1.02;;;26.50;55.50;;;;;;5074717;28;20414;-82
2023/06/05 12:04:07;;;;;;;0.88;0.88;;;26.50;50.50;;;;;;5073914;28;20094;-82
2023/06/05 12:06:46;;;;;;;1.48;1.00;;;26.60;56.30;;;;;;5074213;28;20025;-81
2023/06/05 12:09:15;;;;;;;1.00;0.90;;;26.70;54.10;;;;;;5074582;28;20410;-82
2023/06/05 12:11:44;;;;;;;1.13;0.80;;;26.60;56.10;;;;;;5074328;28;20031;-82
2023/06/05 12:14:11;;;;;;;1.42;0.93;;;26.50;56.10;;;;;;5074398;28;20028;-82
2023/06/05 12:16:44;;;;;;;1.67;1.10;;;26.80;55.80;;;;;;5073909;28;20060;-82
2023/06/05 12:19:19;;;;;;;1.48;1.13;;;26.90;50.30;;;;;;5074121;28;20024;-80
2023/06/05 12:21:46;;;;;;;2.00;1.08;;;26.90;55.50;;;;;;5074347;28;20021;-79
2023/06/05 12:24:13;;;;;;;1.67;1.13;;;;;;;;;;5073759;28;20415;-77
2023/06/05 12:26:54;;;;;;;1.20;1.10;;;26.90;49.80;;;;;;5073892;28;20032;-78
2023/06/05 12:29:28;;;;;;;3.05;1.17;;;27.00;55.10;;;;;;5072956;28;20024;-81
2023/06/05 12:31:54;;;;;;;2.17;0.88;;;;;;;;;;5073589;28;20071;-78
2023/06/05 12:34:38;;;;;;;2.17;1.40;;;27.00;49.10;;;;;;5073591;28;20024;-78
2023/06/05 12:37:05;;;;;;;0.77;0.77;;;;;;;;;;5073678;28;20165;-76
2023/06/05 12:39:31;;;;;;;1.58;1.00;;;;;;;;;;5073537;28;20028;-78
2023/06/05 12:41:57;;;;;;;2.08;1.25;;;;;;;;;;5073212;28;20490;-78
2023/06/05 12:44:23;;;;;;;2.97;1.50;;;;;;;;;;5073274;28;20028;-78
2023/06/05 12:46:50;;;;;;;2.83;1.30;;;;;;;;;;5073588;28;20034;-78
2023/06/05 12:49:16;;;;;;;0.98;0.80;;;;;;;;;;5073608;28;20370;-78
2023/06/05 12:51:43;;;;;;;0.80;0.80;;;27.40;55.00;;;;;;5073607;28;20028;-78
2023/06/05 12:54:10;;;;;;;1.13;1.02;;;;;;;;;;5073127;28;20025;-80
2023/06/05 12:56:38;;;;;;;2.10;1.10;;;;;;;;;;5073074;28;20056;-78
2023/06/05 12:59:05;;;;;;;0.98;0.95;;;;;;;;;;5073322;28;20029;-78
2023/06/05 13:01:32;;;;;;;2.13;1.30;;;;;;;;;;5073288;28;20035;-78
2023/06/05 13:03:58;;;;;;;2.10;1.67;;;;;;;;;;5072727;28;20456;-79
2023/06/05 13:06:25;;;;;;;3.22;1.30;;;;;;;;;;5072667;28;20112;-78
2023/06/05 13:08:51;;;;;;;2.25;1.45;;;;;;;;;;5072947;28;20052;-78
2023/06/05 13:11:18;;;;;;;1.13;0.82;;;;;;;;;;5072799;28;20035;-78
2023/06/05 13:13:44;;;;;;;1.88;1.58;;;;;;;;;;5072775;28;20031;-78
2023/06/05 13:16:11;;;;;;;1.30;1.20;;;;;;;;;;5072450;28;20070;-78
2023/06/05 13:18:38;;;;;;;2.92;1.25;;;;;;;;;;5072727;28;20049;-79
2023/06/05 13:21:05;;;;;;;1.58;1.30;;;;;;;;;;5072298;28;20470;-79
2023/06/05 13:23:31;;;;;;;1.30;1.10;;;;;;;;;;5072499;28;20036;-79
2023/06/05 13:25:57;;;;;;;2.38;1.20;;;;;;;;;;5072348;28;20062;-79
2023/06/05 13:28:23;;;;;;;3.58;1.30;;;;;;;;;;5072349;28;20359;-79
2023/06/05 13:30:49;;;;;;;2.70;1.60;;;;;;;;;;5072432;28;20030;-79
2023/06/05 13:33:15;;;;;;;4.55;1.10;;;;;;;;;;5072655;28;20085;-82
2023/06/05 13:35:42;;;;;;;1.33;1.23;;;;;;;;;;5072278;28;20036;-80
2023/06/05 13:38:07;;;;;;;1.25;1.10;;;;;;;;;;5072216;28;20025;-82
2023/06/05 13:40:33;;;;;;;2.45;1.30;;;;;;;;;;5071999;28;20035;-81
2023/06/05 13:43:00;;;;;;;1.75;1.00;;;;;;;;;;5072187;28;20376;-81
2023/06/05 13:45:26;;;;;;;1.10;0.95;;;;;;;;;;5054597;28;20107;-81
2023/06/05 13:47:52;;;;;;;2.03;1.77;;;;;;;;;;5072233;28;20474;-81
2023/06/05 13:50:18;;;;;;;2.97;1.48;;;;;;;;;;5072193;28;20032;-81
2023/06/05 13:52:47;;;;;;;1.55;1.45;;;28.10;44.60;;;;;;5072114;28;20432;-81
2023/06/05 13:55:13;;;;;;;2.92;1.52;;;;;;;;;;5072007;28;20123;-81
2023/06/05 13:57:40;;;;;;;2.47;2.17;;;;;;;;;;5072007;28;20029;-81
2023/06/05 14:00:06;;;;;;;3.30;1.75;;;;;;;;;;5072012;28;20025;-81
2023/06/05 14:02:32;;;;;;;3.97;1.38;;;;;;;;;;5071548;28;20048;-81
2023/06/05 14:04:59;;;;;;;2.33;1.85;;;;;;;;;;5072135;28;20608;-81
2023/06/05 14:07:26;;;;;;;1.70;1.33;;;;;;;;;;5072055;28;20035;-81
2023/06/05 14:09:52;;;;;;;2.05;1.70;;;;;;;;;;5072341;28;20025;-81
2023/06/05 14:12:19;;;;;;;2.42;1.98;;;;;;;;;;5071687;28;20089;-80
2023/06/05 14:14:45;;;;;;;3.03;1.98;;;;;;;;;;5071553;28;20032;-80